Frisco, TX (75033)

9:37 AM CDT on August 29, 2015 (GMT -0500)
Heather Ridge Estates | | Change Station
CLOSE
Current Station
Personal Weather Station
Location: Frisco, TX
Elevation: 591 ft
Nearby Weather Stations

Elev 591 ft 33.16 °N, 96.86 °W | Updated 2 minutes ago

Partly Cloudy
Partly Cloudy
81.2 °F
Feels Like 84 °F
N
1.0
Wind Variable Wind from NNW
Gusts 4.0 mph

Today
High -- | Low -- °F
--% Chance of Precip.
Yesterday
High -- | Low -- °F
Precip. -- in
6:59 AM 7:56 PM
Full, 100% visible
Pressure 30.02 in
Visibility 10.0 miles
Clouds Few 9000 ft
Mostly Cloudy 14000 ft
Heat Index 84 °F
Dew Point 68 °F
Humidity 65%
Rainfall 0.02 in
Snow Depth Not available.
UV 1 out of 12
Pollen 8.50 out of 12
Air Quality Not available.
Flu Activity Not available.
METAR KADS 291347Z 15005KT 10SM FEW090 BKN140 26/19 A3002
Pressure 30.02 in
Visibility 10.0 miles
Clouds Few 9000 ft
Mostly Cloudy 14000 ft
Heat Index 84 °F
Dew Point 68 °F
Humidity 65%
Rainfall 0.02 in
Snow Depth Not available.
UV 1 out of 12
Pollen 8.50 out of 12
Air Quality Not available.
Flu Activity Not available.
METAR KADS 291347Z 15005KT 10SM FEW090 BKN140 26/19 A3002
Nowcast | as of 7:14 am CDT on August 29, 2015

Isolated showers will move south at 10 mph across North Texas through mid morning. Rainfall amounts will be light and range from a trace to a few hundredths of an inch. A few thunderstorms may also develop later today.

×

10-Day Weather Forecast

×

Almanac

Astronomy

Aug. 29, 2015 Rise Set
Actual Time
Civil Twilight
Nautical Twilight
Astronomical Twilight
Moon
Length of Visible Light
Length of Day
Tomorrow will be .
, % of the Moon is Illuminated

Today's Extremes

State Highs State Lows

Community

WunderPhotos

Upload Photos

1,850,706 photos uploaded!

WunderBlogs® & News

Nearby

Air Quality

  Air Quality AQ Index Pollutant
Not available.

Snow Depth

Station Depth Elevation

Earthquake Activity

City Distance Mag. Time & Date
Minimum magnitude displayed is 2.5.

Coastal Water Temperatures

Place Temperature

Stations

Nearby Weather Stations

Station Location Temp. Windchill Dew Point Humidity Wind Precip. Elev Updated Type